Impacts TAF Board INFO
FOR SITUATIONAL AWARENESS. NOT TO BE USED FOR FLIGHT PLANNING PURPOSES.
IDs:

KIAH - Houston/Bush Intl, TX, US

Issued at 2320 UTC 22 Jan 2018
Updated at 0022 UTC 23 Jan 2018
Potential Impact None Slight Moderate High
Time2353Z 23/01Z 23/02Z 23/03Z 23/04Z 23/05Z 23/06Z 23/07Z 23/08Z 23/09Z 23/10Z 23/11Z 23/12Z 23/13Z>>
Type OBS PRVL PRVL PRVL PRVL PRVL PRVL PRVL PRVL PRVL PRVL PRVL PRVL PRVL
VIS 10 >6 >6 >6 >6 >6 >6 >6 >6 >6 >6 >6 >6 >6
CIG -- -- -- -- -- -- -- -- -- -- -- -- -- --
Cover SCT SKC SKC SKC SKC SKC SKC SKC SKC SKC SKC SKC SKC SKC
FltCat VFR VFR VFR VFR VFR VFR VFR VFR VFR VFR VFR VFR VFR VFR
WX -- -- -- -- -- -- -- -- -- -- -- -- -- --
WDir 310 330 330 330 330 330 330 330 330 330 330 330 330 330
WSpd 10 5 5 5 5 5 5 5 5 5 5 5 5 5
WGst -- -- -- -- -- -- -- -- -- -- -- -- -- --

Raw TAF
KIAH 222320Z 2300/2406 33005KT P6SM SKC

Raw METAR
KIAH 222353Z 31010KT 10SM SCT250 15/M02 A3007 RMK AO2 SLP180 T01501022 10194 20150 53020
KIAH 222253Z 32012KT 10SM SCT250 17/M04 A3004 RMK AO2 SLP172 T01721039
KIAH 222153Z 31016G23KT 10SM FEW250 19/M03 A3002 RMK AO2 SLP164 T01891028

METAR Board
Radar Display
Forecast Discussion

FOR SITUATIONAL AWARENESS. NOT TO BE USED FOR FLIGHT PLANNING PURPOSES.